Terminal Aerodrome Forecast
Issued by NWS

Home | Current Version | Previous Version | Text Only | Print | Product List | Glossary On
Versions: 1 2 3 4 5 6 7 8 9 10 11 12 13 14 15 16 17 18 19 20 21 22 23 24 25 26 27 28 29 30 31 32 33 34 35 36 37 38 39 40 41 42 43 44 45 46 47 48 49 50
000
FTUS45 KGJT 190302 AAA
TAFVEL
TAF AMD
KVEL 190302Z 1903/1924 00000KT P6SM OVC012
     FM190700 24003KT P6SM VCFG OVC009
      TEMPO 1911/1915 5SM BR BKN005
     FM192000 00000KT P6SM SCT010 BKN250=

USA.gov is the U.S. government's official web portal to all federal, state and local government web resources and services.